Time,TemperatureF,DewpointF,PressureIn,WindDirection,WindDirectionDegrees,WindSpeedMPH,WindSpeedGustMPH,Humidity,HourlyPrecipIn,Conditions,Clouds,dailyrainin,SoftwareType,DateUTC
2013-01-15 00:04:00,66.7,62.0,30.13,ESE,112,0.0,1.0,86,0.00,,,0.00,weatherlink.com 1.10,2013-01-15 05:04:00,
2013-01-15 00:19:00,66.6,62.0,30.13,East,98,0.0,1.0,86,0.00,,,0.00,weatherlink.com 1.10,2013-01-15 05:19:00,
2013-01-15 00:34:00,66.5,63.0,30.13,ESE,108,0.0,0.0,87,0.00,,,0.00,weatherlink.com 1.10,2013-01-15 05:34:00,
2013-01-15 00:49:00,66.5,63.0,30.13,ESE,114,1.0,3.0,87,0.00,,,0.00,weatherlink.com 1.10,2013-01-15 05:49:00,
2013-01-15 01:04:00,66.3,62.0,30.13,ESE,112,0.0,2.0,87,0.00,,,0.00,weatherlink.com 1.10,2013-01-15 06:04:00,
2013-01-15 01:20:00,64.9,61.0,30.13,ESE,111,0.0,0.0,88,0.00,,,0.00,weatherlink.com 1.10,2013-01-15 06:20:00,
2013-01-15 01:35:00,64.0,61.0,30.13,ESE,111,0.0,0.0,91,0.00,,,0.00,weatherlink.com 1.10,2013-01-15 06:35:00,
2013-01-15 01:50:00,63.4,61.0,30.13,ESE,111,0.0,0.0,92,0.00,,,0.00,weatherlink.com 1.10,2013-01-15 06:50:00,
2013-01-15 02:05:00,63.1,61.0,30.12,ESE,112,0.0,0.0,93,0.00,,,0.00,weatherlink.com 1.10,2013-01-15 07:05:00,
2013-01-15 02:20:00,62.6,61.0,30.12,ESE,111,0.0,0.0,94,0.00,,,0.00,weatherlink.com 1.10,2013-01-15 07:20:00,
2013-01-15 02:35:00,61.9,60.0,30.12,ESE,111,0.0,0.0,94,0.00,,,0.00,weatherlink.com 1.10,2013-01-15 07:35:00,
2013-01-15 02:50:00,61.4,60.0,30.11,ESE,111,0.0,0.0,95,0.00,,,0.00,weatherlink.com 1.10,2013-01-15 07:50:00,
2013-01-15 03:05:00,60.9,60.0,30.11,ESE,111,0.0,0.0,95,0.00,,,0.00,weatherlink.com 1.10,2013-01-15 08:05:00,
2013-01-15 03:20:00,61.0,60.0,30.11,ESE,112,0.0,0.0,96,0.00,,,0.00,weatherlink.com 1.10,2013-01-15 08:20:00,
2013-01-15 03:35:00,60.9,60.0,30.11,ESE,111,0.0,0.0,96,0.00,,,0.00,weatherlink.com 1.10,2013-01-15 08:35:00,
2013-01-15 03:50:00,61.0,60.0,30.10,ESE,111,0.0,0.0,96,0.00,,,0.00,weatherlink.com 1.10,2013-01-15 08:50:00,
2013-01-15 04:05:00,60.9,60.0,30.10,ESE,111,0.0,0.0,96,0.00,,,0.00,weatherlink.com 1.10,2013-01-15 09:05:00,
2013-01-15 04:20:00,60.8,60.0,30.10,ESE,111,0.0,0.0,96,0.00,,,0.00,weatherlink.com 1.10,2013-01-15 09:20:00,
2013-01-15 04:35:00,60.9,60.0,30.10,ESE,112,0.0,1.0,97,0.00,,,0.00,weatherlink.com 1.10,2013-01-15 09:35:00,
2013-01-15 04:50:00,60.7,60.0,30.10,ESE,112,0.0,0.0,97,0.00,,,0.00,weatherlink.com 1.10,2013-01-15 09:50:00,
2013-01-15 05:05:00,60.9,60.0,30.10,ESE,111,0.0,0.0,97,0.00,,,0.00,weatherlink.com 1.10,2013-01-15 10:05:00,
2013-01-15 05:20:00,60.4,60.0,30.10,ESE,112,0.0,0.0,97,0.00,,,0.00,weatherlink.com 1.10,2013-01-15 10:20:00,
2013-01-15 05:35:00,60.1,59.0,30.11,ESE,112,0.0,0.0,97,0.00,,,0.00,weatherlink.com 1.10,2013-01-15 10:35:00,
2013-01-15 05:50:00,59.8,59.0,30.11,ESE,111,0.0,0.0,97,0.00,,,0.00,weatherlink.com 1.10,2013-01-15 10:50:00,
2013-01-15 06:05:00,59.9,59.0,30.11,ESE,112,0.0,0.0,97,0.00,,,0.00,weatherlink.com 1.10,2013-01-15 11:05:00,
2013-01-15 06:20:00,59.8,59.0,30.11,ESE,112,0.0,0.0,98,0.00,,,0.00,weatherlink.com 1.10,2013-01-15 11:20:00,
2013-01-15 06:35:00,59.5,59.0,30.11,ESE,112,0.0,0.0,97,0.00,,,0.00,weatherlink.com 1.10,2013-01-15 11:35:00,
2013-01-15 06:50:00,59.5,59.0,30.12,ESE,111,0.0,0.0,98,0.00,,,0.00,weatherlink.com 1.10,2013-01-15 11:50:00,
2013-01-15 07:05:00,59.2,59.0,30.12,ESE,112,0.0,0.0,98,0.00,,,0.00,weatherlink.com 1.10,2013-01-15 12:05:00,
2013-01-15 07:20:00,59.2,59.0,30.12,ESE,112,0.0,0.0,98,0.00,,,0.00,weatherlink.com 1.10,2013-01-15 12:20:00,
2013-01-15 07:35:00,59.2,59.0,30.13,ESE,111,0.0,0.0,98,0.00,,,0.00,weatherlink.com 1.10,2013-01-15 12:35:00,
2013-01-15 07:50:00,60.8,60.0,30.13,ESE,112,0.0,0.0,98,0.00,,,0.00,weatherlink.com 1.10,2013-01-15 12:50:00,
2013-01-15 08:05:00,62.3,62.0,30.13,ESE,111,0.0,0.0,98,0.00,,,0.00,weatherlink.com 1.10,2013-01-15 13:05:00,
2013-01-15 08:20:00,63.5,63.0,30.13,ESE,112,1.0,1.0,98,0.00,,,0.00,weatherlink.com 1.10,2013-01-15 13:20:00,
2013-01-15 08:35:00,65.8,65.0,30.13,ENE,74,1.0,4.0,98,0.00,,,0.00,weatherlink.com 1.10,2013-01-15 13:35:00,
2013-01-15 08:50:00,67.9,67.0,30.13,ESE,110,1.0,3.0,95,0.00,,,0.00,weatherlink.com 1.10,2013-01-15 13:50:00,
2013-01-15 09:05:00,69.4,67.0,30.13,ESE,103,1.0,4.0,92,0.00,,,0.00,weatherlink.com 1.10,2013-01-15 14:05:00,
2013-01-15 09:20:00,70.9,67.0,30.13,ENE,77,2.0,5.0,87,0.00,,,0.00,weatherlink.com 1.10,2013-01-15 14:20:00,
2013-01-15 09:35:00,71.5,67.0,30.14,East,87,3.0,6.0,86,0.00,,,0.00,weatherlink.com 1.10,2013-01-15 14:35:00,
2013-01-15 09:50:00,72.6,68.0,30.14,East,86,3.0,5.0,84,0.00,,,0.00,weatherlink.com 1.10,2013-01-15 14:50:00,
2013-01-15 10:05:00,73.3,68.0,30.13,East,85,3.0,6.0,84,0.00,,,0.00,weatherlink.com 1.10,2013-01-15 15:05:00,
2013-01-15 10:20:00,74.2,68.0,30.13,ESE,112,1.0,6.0,81,0.00,,,0.00,weatherlink.com 1.10,2013-01-15 15:20:00,
2013-01-15 10:35:00,75.0,68.0,30.13,ENE,74,4.0,8.0,80,0.00,,,0.00,weatherlink.com 1.10,2013-01-15 15:35:00,
2013-01-15 10:50:00,76.2,69.0,30.12,East,95,4.0,6.0,77,0.00,,,0.00,weatherlink.com 1.10,2013-01-15 15:50:00,
2013-01-15 11:05:00,76.4,68.0,30.11,East,84,5.0,8.0,75,0.00,,,0.00,weatherlink.com 1.10,2013-01-15 16:05:00,
2013-01-15 11:20:00,77.0,68.0,30.11,ESE,116,2.0,7.0,73,0.00,,,0.00,weatherlink.com 1.10,2013-01-15 16:20:00,
2013-01-15 11:35:00,77.8,67.0,30.10,East,96,3.0,8.0,70,0.00,,,0.00,weatherlink.com 1.10,2013-01-15 16:35:00,
2013-01-15 11:50:00,78.3,66.0,30.10,East,83,3.0,6.0,67,0.00,,,0.00,weatherlink.com 1.10,2013-01-15 16:50:00,
2013-01-15 12:05:00,79.4,67.0,30.09,SE,146,3.0,4.0,66,0.00,,,0.00,weatherlink.com 1.10,2013-01-15 17:05:00,
2013-01-15 12:20:00,79.8,65.0,30.09,East,87,2.0,7.0,61,0.00,,,0.00,weatherlink.com 1.10,2013-01-15 17:20:00,
2013-01-15 12:35:00,79.6,65.0,30.08,SSE,158,3.0,5.0,62,0.00,,,0.00,weatherlink.com 1.10,2013-01-15 17:35:00,
2013-01-15 12:50:00,79.8,66.0,30.08,ENE,64,1.0,4.0,62,0.00,,,0.00,weatherlink.com 1.10,2013-01-15 17:50:00,
2013-01-15 13:05:00,80.5,65.0,30.07,South,191,2.0,6.0,60,0.00,,,0.00,weatherlink.com 1.10,2013-01-15 18:05:00,
2013-01-15 13:21:00,80.5,65.0,30.06,East,86,1.0,7.0,60,0.00,,,0.00,weatherlink.com 1.10,2013-01-15 18:21:00,
2013-01-15 13:36:00,80.3,64.0,30.06,East,84,3.0,5.0,58,0.00,,,0.00,weatherlink.com 1.10,2013-01-15 18:36:00,
2013-01-15 13:51:00,79.8,66.0,30.06,SSW,205,2.0,5.0,62,0.00,,,0.00,weatherlink.com 1.10,2013-01-15 18:51:00,
2013-01-15 14:06:00,79.5,66.0,30.05,SE,145,1.0,7.0,63,0.00,,,0.00,weatherlink.com 1.10,2013-01-15 19:06:00,
2013-01-15 14:21:00,81.1,66.0,30.05,South,187,2.0,6.0,60,0.00,,,0.00,weatherlink.com 1.10,2013-01-15 19:21:00,
2013-01-15 14:36:00,80.2,66.0,30.05,West,266,0.0,6.0,63,0.00,,,0.00,weatherlink.com 1.10,2013-01-15 19:36:00,
2013-01-15 14:51:00,80.5,66.0,30.04,South,169,0.0,8.0,62,0.00,,,0.00,weatherlink.com 1.10,2013-01-15 19:51:00,
2013-01-15 15:06:00,79.6,65.0,30.05,West,273,1.0,6.0,61,0.00,,,0.00,weatherlink.com 1.10,2013-01-15 20:06:00,
2013-01-15 15:21:00,78.6,63.0,30.05,WSW,246,1.0,8.0,60,0.00,,,0.00,weatherlink.com 1.10,2013-01-15 20:21:00,
2013-01-15 15:36:00,79.7,64.0,30.05,SSE,160,2.0,5.0,60,0.00,,,0.00,weatherlink.com 1.10,2013-01-15 20:36:00,
2013-01-15 15:51:00,80.7,63.0,30.05,SSE,160,1.0,7.0,55,0.00,,,0.00,weatherlink.com 1.10,2013-01-15 20:51:00,
2013-01-15 16:06:00,81.0,63.0,30.05,SW,229,2.0,7.0,54,0.00,,,0.00,weatherlink.com 1.10,2013-01-15 21:06:00,
2013-01-15 16:21:00,81.2,63.0,30.05,WSW,239,1.0,5.0,54,0.00,,,0.00,weatherlink.com 1.10,2013-01-15 21:21:00,
2013-01-15 16:36:00,81.1,63.0,30.05,SSW,208,3.0,7.0,54,0.00,,,0.00,weatherlink.com 1.10,2013-01-15 21:36:00,
2013-01-15 16:51:00,80.5,63.0,30.06,South,180,1.0,6.0,55,0.00,,,0.00,weatherlink.com 1.10,2013-01-15 21:51:00,
2013-01-15 17:06:00,79.7,63.0,30.06,SSW,193,3.0,7.0,57,0.00,,,0.00,weatherlink.com 1.10,2013-01-15 22:06:00,
2013-01-15 17:21:00,79.3,63.0,30.06,SW,214,3.0,4.0,57,0.00,,,0.00,weatherlink.com 1.10,2013-01-15 22:21:00,
2013-01-15 17:36:00,77.8,62.0,30.06,SE,139,1.0,6.0,58,0.00,,,0.00,weatherlink.com 1.10,2013-01-15 22:36:00,
2013-01-15 17:51:00,76.3,62.0,30.06,SSE,166,0.0,4.0,61,0.00,,,0.00,weatherlink.com 1.10,2013-01-15 22:51:00,
2013-01-15 18:06:00,75.2,62.0,30.07,SSE,164,0.0,3.0,64,0.00,,,0.00,weatherlink.com 1.10,2013-01-15 23:06:00,
2013-01-15 18:21:00,74.1,62.0,30.07,SSE,150,0.0,2.0,67,0.00,,,0.00,weatherlink.com 1.10,2013-01-15 23:21:00,
2013-01-15 18:36:00,73.7,63.0,30.07,SE,143,0.0,1.0,69,0.00,,,0.00,weatherlink.com 1.10,2013-01-15 23:36:00,
2013-01-15 18:51:00,73.5,64.0,30.06,SSE,149,0.0,1.0,71,0.00,,,0.00,weatherlink.com 1.10,2013-01-15 23:51:00,
2013-01-15 19:06:00,73.4,64.0,30.06,SSE,148,0.0,1.0,73,0.00,,,0.00,weatherlink.com 1.10,2013-01-16 00:06:00,
2013-01-15 19:21:00,73.1,64.0,30.07,SSE,148,0.0,0.0,74,0.00,,,0.00,weatherlink.com 1.10,2013-01-16 00:21:00,
2013-01-15 19:36:00,72.7,64.0,30.07,SSE,148,0.0,0.0,75,0.00,,,0.00,weatherlink.com 1.10,2013-01-16 00:36:00,
2013-01-15 19:51:00,72.8,65.0,30.06,SSE,148,0.0,0.0,76,0.00,,,0.00,weatherlink.com 1.10,2013-01-16 00:51:00,
2013-01-15 20:06:00,72.4,64.0,30.06,SSE,148,0.0,0.0,76,0.00,,,0.00,weatherlink.com 1.10,2013-01-16 01:06:00,
2013-01-15 20:21:00,71.9,65.0,30.06,SSE,148,0.0,0.0,78,0.00,,,0.00,weatherlink.com 1.10,2013-01-16 01:21:00,
2013-01-15 20:36:00,71.7,65.0,30.05,SSE,148,0.0,0.0,79,0.00,,,0.00,weatherlink.com 1.10,2013-01-16 01:36:00,
2013-01-15 20:51:00,71.5,65.0,30.05,SSE,148,0.0,0.0,79,0.00,,,0.00,weatherlink.com 1.10,2013-01-16 01:51:00,
2013-01-15 21:06:00,71.1,65.0,30.05,SSE,148,0.0,0.0,80,0.00,,,0.00,weatherlink.com 1.10,2013-01-16 02:06:00,
2013-01-15 21:21:00,70.2,64.0,30.05,SSE,148,0.0,0.0,81,0.00,,,0.00,weatherlink.com 1.10,2013-01-16 02:21:00,
2013-01-15 21:37:00,69.4,64.0,30.05,SSE,148,0.0,0.0,83,0.00,,,0.00,weatherlink.com 1.10,2013-01-16 02:37:00,
2013-01-15 21:52:00,68.6,64.0,30.05,SSE,148,0.0,0.0,85,0.00,,,0.00,weatherlink.com 1.10,2013-01-16 02:52:00,
2013-01-15 22:08:00,67.9,64.0,30.05,SSE,148,0.0,0.0,87,0.00,,,0.00,weatherlink.com 1.10,2013-01-16 03:08:00,
2013-01-15 22:22:00,67.3,63.0,30.05,SSE,148,0.0,0.0,87,0.00,,,0.00,weatherlink.com 1.10,2013-01-16 03:22:00,
2013-01-15 22:37:00,67.1,64.0,30.05,SSE,148,0.0,0.0,90,0.00,,,0.00,weatherlink.com 1.10,2013-01-16 03:37:00,
2013-01-15 22:52:00,68.7,66.0,30.05,ESE,119,0.0,1.0,90,0.00,,,0.00,weatherlink.com 1.10,2013-01-16 03:52:00,
2013-01-15 23:07:00,69.4,66.0,30.05,ESE,117,0.0,0.0,89,0.00,,,0.00,weatherlink.com 1.10,2013-01-16 04:07:00,
2013-01-15 23:22:00,70.1,67.0,30.05,ESE,104,0.0,1.0,88,0.00,,,0.00,weatherlink.com 1.10,2013-01-16 04:22:00,
2013-01-15 23:37:00,70.2,66.0,30.05,ESE,103,0.0,1.0,87,0.00,,,0.00,weatherlink.com 1.10,2013-01-16 04:37:00,
2013-01-15 23:52:00,69.7,66.0,30.06,SE,138,0.0,1.0,88,0.00,,,0.00,weatherlink.com 1.10,2013-01-16 04:52:00,